Time;durP1;ratioP1;P1;durP2;ratioP2;P2;SDS_P1;SDS_P2;PMS_P1;PMS_P2;Temp;Humidity;BMP_temperature;BMP_pressure;BME280_temperature;BME280_humidity;BME280_pressure;Samples;Min_cycle;Max_cycle;Signal;HPM_P1;HPM_P2
2022/03/08 00:01:58;;;;;;;3.60;3.20;;;;;;;;;;10336001;28;20368;-74
2022/03/08 00:07:00;;;;;;;3.23;2.60;;;;;;;;;;10337839;28;20197;-74
2022/03/08 00:12:02;;;;;;;2.90;2.60;;;;;;;;;;10336861;28;20201;-74
2022/03/08 00:17:04;;;;;;;2.70;2.50;;;;;;;;;;10335924;28;20351;-74
2022/03/08 00:22:05;;;;;;;2.40;2.20;;;;;;;;;;10368230;28;20196;-74
2022/03/08 00:27:06;;;;;;;3.40;2.47;;;;;;;;;;10334326;28;20386;-74
2022/03/08 00:32:07;;;;;;;2.50;2.30;;;;;;;;;;10334616;28;20215;-74
2022/03/08 00:37:08;;;;;;;2.60;2.40;;;;;;;;;;10336590;28;21041;-73
2022/03/08 00:42:11;;;;;;;3.27;2.30;;;;;;;;;;10334269;28;20260;-73
2022/03/08 00:47:13;;;;;;;2.67;2.50;;;;;;;;;;10363014;28;20227;-74
2022/03/08 00:52:14;;;;;;;3.00;2.67;;;;;;;;;;10334918;28;20224;-73
2022/03/08 00:57:15;;;;;;;2.73;2.30;;;;;;;;;;10365387;28;20231;-73
2022/03/08 01:02:16;;;;;;;3.15;2.33;;;;;;;;;;10333690;28;20212;-73
2022/03/08 01:07:17;;;;;;;2.70;2.50;;;;;;;;;;10333411;28;20207;-73
2022/03/08 01:12:19;;;;;;;2.20;2.10;;;;;;;;;;10336223;28;20579;-73
2022/03/08 01:17:20;;;;;;;2.30;2.13;;;;;;;;;;10362421;28;20216;-73
2022/03/08 01:22:21;;;;;;;3.03;2.40;;;;;;;;;;10332801;28;20205;-73
2022/03/08 01:27:22;;;;;;;2.00;1.90;;;;;;;;;;10332893;28;20749;-73
2022/03/08 01:32:23;;;;;;;2.60;2.40;;;;;;;;;;10362258;28;20224;-73
2022/03/08 01:37:24;;;;;;;2.00;1.90;;;;;;;;;;10364737;28;20695;-73
2022/03/08 01:42:26;;;;;;;1.90;1.80;;;;;;;;;;10364858;28;20235;-74
2022/03/08 01:47:29;;;;;;;1.80;1.70;;;;;;;;;;10332903;28;20208;-73
2022/03/08 01:52:30;;;;;;;3.30;2.20;;;;;;;;;;10332374;28;20216;-73
2022/03/08 01:57:31;;;;;;;2.30;1.90;;;;;;;;;;10331878;28;20710;-72
2022/03/08 02:02:32;;;;;;;2.20;2.00;;;;;;;;;;10330317;28;20220;-73
2022/03/08 02:07:34;;;;;;;1.67;1.57;;;;;;;;;;10331309;28;20216;-72
2022/03/08 02:12:35;;;;;;;1.77;1.67;;;;;;;;;;10333391;28;20295;-73
2022/03/08 02:17:36;;;;;;;2.30;1.87;;;;;;;;;;10331107;28;20240;-74
2022/03/08 02:22:37;;;;;;;2.23;1.93;;;;;;;;;;10328766;28;20277;-73
2022/03/08 02:27:39;;;;;;;2.50;1.93;;;;;;;;;;10357048;28;20208;-73
2022/03/08 02:32:40;;;;;;;2.93;1.70;;;;;;;;;;10331248;28;20526;-73
2022/03/08 02:37:47;;;;;;;2.27;2.17;;;;;;;;;;10329571;28;20244;-72
2022/03/08 02:42:49;;;;;;;2.33;1.80;;;;;;;;;;10331558;28;20209;-73
2022/03/08 02:47:50;;;;;;;1.93;1.57;;;;;;;;;;10328098;28;20602;-73
2022/03/08 02:52:52;;;;;;;2.23;2.03;;;;;;;;;;10328297;28;20625;-73
2022/03/08 02:57:54;;;;;;;2.00;1.80;;;;;;;;;;10330177;28;20292;-73
2022/03/08 03:02:55;;;;;;;1.90;1.80;;;;;;;;;;10326766;28;20712;-73
2022/03/08 03:07:56;;;;;;;2.33;2.13;;;;;;;;;;10332923;28;20699;-73
2022/03/08 03:12:58;;;;;;;5.27;2.30;;;;;;;;;;10331204;28;20208;-74
2022/03/08 03:17:59;;;;;;;2.93;2.00;;;;;;;;;;10328443;28;20716;-73
2022/03/08 03:23:00;;;;;;;2.40;2.20;;;;;;;;;;10333040;28;20200;-74
2022/03/08 03:28:02;;;;;;;1.83;1.73;;;;;;;;;;10327710;28;20307;-74
2022/03/08 03:33:03;;;;;;;2.60;2.50;;;;;;;;;;10366414;28;20315;-73
2022/03/08 03:38:04;;;;;;;3.50;2.23;;;;;;;;;;10326950;28;20220;-73
2022/03/08 03:43:05;;;;;;;2.20;2.10;;;;;;;;;;10359264;28;20250;-74
2022/03/08 03:48:06;;;;;;;2.80;2.60;;;;;;;;;;10331170;28;20630;-74
2022/03/08 03:53:07;;;;;;;2.13;2.03;;;;;;;;;;10325670;28;20208;-74
2022/03/08 03:58:08;;;;;;;2.43;2.23;;;;;;;;;;10323892;28;20849;-74
2022/03/08 04:03:09;;;;;;;2.60;2.40;;;;;;;;;;10328815;28;20213;-74
2022/03/08 04:08:11;;;;;;;2.30;2.20;;;;;;;;;;10326317;28;20236;-74
2022/03/08 04:13:12;;;;;;;2.40;2.20;;;;;;;;;;10320758;28;20218;-74
2022/03/08 04:18:14;;;;;;;4.13;2.80;;;;;;;;;;10324372;28;20208;-74
2022/03/08 04:23:15;;;;;;;7.93;2.70;;;;;;;;;;10364224;28;20295;-73
2022/03/08 04:28:16;;;;;;;3.20;3.00;;;;;;;;;;10338635;28;20220;-73
2022/03/08 04:33:17;;;;;;;4.37;3.00;;;;;;;;;;10336298;28;20785;-73
2022/03/08 04:38:18;;;;;;;3.27;3.07;;;;;;;;;;10331132;28;20235;-74
2022/03/08 04:43:19;;;;;;;4.43;3.40;;;;;;;;;;10331883;28;20204;-75
2022/03/08 04:48:20;;;;;;;4.47;2.77;;;;;;;;;;10330780;28;20323;-74
2022/03/08 04:53:21;;;;;;;3.67;3.03;;;;;;;;;;10330813;28;20302;-74
2022/03/08 04:58:22;;;;;;;5.87;3.20;;;;;;;;;;10331477;28;20304;-74
2022/03/08 05:03:24;;;;;;;3.33;3.13;;;;;;;;;;10333413;28;20221;-74
2022/03/08 05:08:25;;;;;;;5.70;3.40;;;;;;;;;;10362003;28;20600;-74
2022/03/08 05:13:26;;;;;;;2.73;2.53;;;;;;;;;;10327358;28;20885;-73
2022/03/08 05:18:27;;;;;;;5.17;2.90;;;;;;;;;;10334626;28;20208;-74
2022/03/08 05:23:28;;;;;;;2.90;2.70;;;;;;;;;;10325646;28;21767;-74
2022/03/08 05:28:29;;;;;;;3.23;2.70;;;;;;;;;;10324769;28;20200;-74
2022/03/08 05:33:30;;;;;;;4.07;2.70;;;;;;;;;;10333835;28;20710;-73
2022/03/08 05:38:31;;;;;;;3.07;2.77;;;;;;;;;;10335871;28;20792;-73
2022/03/08 05:43:32;;;;;;;4.10;2.97;;;;;;;;;;10335522;28;20315;-74
2022/03/08 05:48:33;;;;;;;2.63;2.53;;;;;;;;;;10338983;28;20316;-72
2022/03/08 05:53:34;;;;;;;3.47;2.13;;;;;;;;;;10336635;28;20208;-72
2022/03/08 05:58:35;;;;;;;2.73;2.63;;;;;;;;;;10332527;28;20254;-71
2022/03/08 06:03:36;;;;;;;4.33;3.20;;;;;;;;;;10333980;28;20295;-72
2022/03/08 06:08:37;;;;;;;3.33;3.03;;;;;;;;;;10360179;28;20707;-73
2022/03/08 06:13:38;;;;;;;4.03;2.60;;;;;;;;;;10331137;28;20259;-74
2022/03/08 06:18:40;;;;;;;3.47;2.57;;;;;;;;;;10321750;28;20305;-74
2022/03/08 06:23:41;;;;;;;5.50;3.13;;;;;;;;;;10316564;28;20658;-72
2022/03/08 06:28:42;;;;;;;4.20;3.40;;;;;;;;;;10357408;28;20243;-71
2022/03/08 06:33:43;;;;;;;3.00;2.80;;;;;;;;;;10334476;28;20301;-72
2022/03/08 06:38:44;;;;;;;3.90;3.50;;;;;;;;;;10332711;28;20636;-72
2022/03/08 06:43:45;;;;;;;4.73;3.60;;;;;;;;;;10333281;28;20212;-72
2022/03/08 06:48:46;;;;;;;4.23;3.30;;;;;;;;;;10333244;28;20234;-71
2022/03/08 06:53:47;;;;;;;4.90;3.33;;;;;;;;;;10325040;28;20204;-71
2022/03/08 06:58:48;;;;;;;7.33;3.77;;;;;;;;;;10332359;28;20262;-72
2022/03/08 07:03:49;;;;;;;4.70;3.57;;;;;;;;;;10327385;28;20207;-73
2022/03/08 07:08:51;;;;;;;22.90;8.33;;;;;;;;;;10325150;28;20215;-72
2022/03/08 07:13:52;;;;;;;7.13;5.20;;;;;;;;;;10325317;28;20262;-73
2022/03/08 07:18:53;;;;;;;4.90;4.40;;;;;;;;;;10357779;28;20297;-72
2022/03/08 07:23:54;;;;;;;4.60;4.20;;;;;;;;;;10330818;28;20195;-73
2022/03/08 07:28:55;;;;;;;4.63;4.10;;;;;;;;;;10363271;28;20217;-72
2022/03/08 07:33:56;;;;;;;8.43;4.10;;;;;;;;;;10329720;28;20217;-72
2022/03/08 07:38:57;;;;;;;5.00;4.03;;;;;;;;;;10362876;28;20239;-72
2022/03/08 07:43:58;;;;;;;3.70;3.30;;;;;;;;;;10325135;28;20212;-72
2022/03/08 07:48:59;;;;;;;5.78;4.15;;;;;;;;;;10331015;28;20579;-73
2022/03/08 07:54:01;;;;;;;7.25;3.97;;;;;;;;;;10332345;28;20215;-74
2022/03/08 07:59:02;;;;;;;6.45;4.55;;;;;;;;;;10339161;28;20260;-74
2022/03/08 08:04:03;;;;;;;11.57;4.40;;;;;;;;;;10328697;28;20218;-73
2022/03/08 08:09:04;;;;;;;5.10;4.20;;;;;;;;;;10338142;28;20307;-75
2022/03/08 08:14:05;;;;;;;4.95;3.88;;;;;;;;;;10338287;28;20401;-76
2022/03/08 08:19:06;;;;;;;7.10;4.10;;;;;;;;;;10337087;28;20296;-74
2022/03/08 08:24:07;;;;;;;5.07;4.10;;;;;;;;;;10330831;28;20767;-75
2022/03/08 08:29:08;;;;;;;4.25;3.70;;;;;;;;;;10338327;28;20590;-76
2022/03/08 08:34:09;;;;;;;4.28;3.90;;;;;;;;;;10361297;28;20270;-75
2022/03/08 08:39:10;;;;;;;9.13;4.38;;;;;;;;;;10328029;28;20232;-75
2022/03/08 08:44:12;;;;;;;6.45;4.10;;;;;;;;;;10332282;28;20204;-74
2022/03/08 08:49:13;;;;;;;8.48;3.85;;;;;;;;;;10332518;28;20216;-76
2022/03/08 08:54:15;;;;;;;6.80;3.60;;;;;;;;;;10340868;28;20200;-74
2022/03/08 08:59:16;;;;;;;9.40;3.78;;;;;;;;;;10338866;28;20671;-76
2022/03/08 09:04:17;;;;;;;4.35;3.53;;;;;;;;;;10338818;28;20221;-76
2022/03/08 09:09:18;;;;;;;7.97;3.67;;;;;;;;;;10339061;28;20546;-77
2022/03/08 09:14:19;;;;;;;5.47;3.97;;;;;;;;;;10337678;28;20211;-77
2022/03/08 09:19:21;;;;;;;8.25;3.70;;;;;;;;;;10334242;28;20204;-78
2022/03/08 09:24:22;;;;;;;6.18;3.33;;;;;;;;;;10328661;28;20231;-78
2022/03/08 09:29:23;;;;;;;4.40;2.95;;;;;;;;;;10334963;28;20211;-76
2022/03/08 09:34:24;;;;;;;3.08;2.88;;;;;;;;;;10359358;28;20282;-75
2022/03/08 09:39:25;;;;;;;4.50;3.42;;;;;;;;;;10361828;28;20232;-75
2022/03/08 09:44:26;;;;;;;3.17;2.40;;;;;;;;;;10326727;28;20743;-78
2022/03/08 09:49:27;;;;;;;2.00;1.90;;;;;;;;;;10357803;28;20291;-74
2022/03/08 09:54:28;;;;;;;3.70;2.17;;;;;;;;;;10332433;28;20577;-76
2022/03/08 09:59:29;;;;;;;2.45;2.35;;;;;;;;;;10367781;28;20303;-76
2022/03/08 10:04:31;;;;;;;3.28;2.65;;;;;;;;;;10335742;28;20256;-74
2022/03/08 10:09:32;;;;;;;1.58;1.58;;;;;;;;;;10363463;28;20694;-75
2022/03/08 10:14:38;;;;;;;2.28;1.42;;;;;;;;;;10365559;28;20328;-75
2022/03/08 10:19:46;;;;;;;2.70;2.10;;;;;;;;;;10333927;28;20217;-75
2022/03/08 10:24:48;;;;;;;2.10;1.52;;;;;;;;;;10329866;28;20280;-77
2022/03/08 10:29:50;;;;;;;2.75;1.55;;;;;;;;;;10360399;28;20238;-75
2022/03/08 10:34:55;;;;;;;1.65;1.30;;;;;;;;;;10330072;28;20518;-76
2022/03/08 10:40:01;;;;;;;4.93;1.83;;;;;;;;;;10333389;28;20221;-76
2022/03/08 10:45:13;;;;;;;3.13;1.08;;;;;;;;;;10335394;28;20338;-72
2022/03/08 10:50:15;;;;;;;1.98;0.90;;;;;;;;;;10336800;28;20232;-76
2022/03/08 10:55:18;;;;;;;0.90;0.90;;;;;;;;;;10341963;28;20219;-76
2022/03/08 11:00:20;;;;;;;1.20;1.10;;;;;;;;;;10368093;28;20216;-75
2022/03/08 11:05:22;;;;;;;1.52;1.52;;;;;;;;;;10327601;28;20267;-76
2022/03/08 11:10:24;;;;;;;1.35;1.10;;;;;;;;;;10332459;28;20220;-76
2022/03/08 11:15:27;;;;;;;1.42;1.10;;;;;;;;;;10331499;28;20653;-77
2022/03/08 11:20:28;;;;;;;2.08;1.45;;;;;;;;;;10337527;28;20296;-77
2022/03/08 11:25:31;;;;;;;1.80;1.02;;;;;;;;;;10332861;28;20607;-76
2022/03/08 11:30:44;;;;;;;0.85;0.80;;;;;;;;;;10330075;28;20219;-76
2022/03/08 11:35:54;;;;;;;3.22;1.00;;;;;;;;;;10344023;28;20203;-75
2022/03/08 11:40:57;;;;;;;1.63;0.90;;;;;;;;;;10373049;28;20362;-76
2022/03/08 11:46:10;;;;;;;1.05;0.90;;;;;;;;;;10370252;28;20591;-78
2022/03/08 11:51:11;;;;;;;2.65;0.90;;;;;;;;;;10341781;28;20700;-78
2022/03/08 11:56:15;;;;;;;0.73;0.70;;;;;;;;;;10345340;28;20629;-72
2022/03/08 12:01:27;;;;;;;0.63;0.60;;;;;;;;;;10342147;28;20271;-78
2022/03/08 12:06:38;;;;;;;0.60;0.60;;;;;;;;;;10342763;28;20212;-76
2022/03/08 12:11:40;;;;;;;1.30;0.70;;;;;;;;;;10375706;28;20208;-77
2022/03/08 12:16:43;;;;;;;0.70;0.70;;;;;;;;;;10338530;28;20545;-76
2022/03/08 12:21:44;;;;;;;2.50;0.63;;;;;;;;;;10334670;28;20205;-78
2022/03/08 12:26:48;;;;;;;0.50;0.50;;;;;;;;;;10338989;28;20291;-77
2022/03/08 12:31:58;;;;;;;0.50;0.50;;;;;;;;;;10341758;28;20234;-76
2022/03/08 12:37:20;;;;;;;0.50;0.50;;;;;;;;;;10340544;28;20216;-77
2022/03/08 12:42:21;;;;;;;0.60;0.52;;;;;;;;;;10326421;28;20768;-78
2022/03/08 12:47:22;;;;;;;0.73;0.50;;;;;;;;;;10342575;28;20208;-77
2022/03/08 12:52:23;;;;;;;0.65;0.57;;;;;;;;;;10338971;28;20211;-77
2022/03/08 12:57:24;;;;;;;0.75;0.73;;;;;;;;;;10337862;28;20591;-76
2022/03/08 13:02:25;;;;;;;0.68;0.68;;;;;;;;;;10343958;28;20771;-76
2022/03/08 13:07:28;;;;;;;1.27;0.60;;;;;;;;;;10338226;28;20208;-78
2022/03/08 13:12:31;;;;;;;1.73;0.70;;;;;;;;;;10338280;28;20684;-77
2022/03/08 13:17:32;;;;;;;0.60;0.60;;;;;;;;;;10337293;28;20247;-75
2022/03/08 13:22:44;;;;;;;1.77;0.60;;;;;;;;;;10337225;28;20197;-77
2022/03/08 13:27:49;;;;;;;1.10;0.52;;;;;;;;;;10339836;28;20858;-79
2022/03/08 13:33:09;;;;;;;0.63;0.63;;;;;;;;;;10339149;28;20231;-76
2022/03/08 13:38:11;;;;;;;1.17;0.75;;;;;;;;;;10335063;28;20336;-76
2022/03/08 13:43:13;;;;;;;0.60;0.60;;;;;;;;;;10335720;28;20594;-78
2022/03/08 13:48:27;;;;;;;0.63;0.55;;;;;;;;;;10343689;28;20247;-78
2022/03/08 13:53:28;;;;;;;0.57;0.52;;;;;;;;;;10370926;28;20705;-77
2022/03/08 13:58:40;;;;;;;0.47;0.47;;;;;;;;;;10335578;28;20220;-78
2022/03/08 14:03:42;;;;;;;0.50;0.50;;;;;;;;;;10329237;28;20309;-76
2022/03/08 14:08:44;;;;;;;2.47;0.50;;;;;;;;;;10334757;28;20197;-76
2022/03/08 14:13:51;;;;;;;0.50;0.50;;;;;;;;;;10337304;28;20232;-76
2022/03/08 14:18:53;;;;;;;0.77;0.43;;;;;;;;;;10337551;28;20216;-78
2022/03/08 14:23:54;;;;;;;0.47;0.47;;;;;;;;;;10335085;28;20640;-76
2022/03/08 14:29:01;;;;;;;0.95;0.70;;;;;;;;;;10342325;28;20817;-76
2022/03/08 14:34:04;;;;;;;0.40;0.40;;;;;;;;;;10363041;28;20226;-76
2022/03/08 14:39:18;;;;;;;0.30;0.30;;;;;;;;;;10328828;28;20307;-78
2022/03/08 14:44:19;;;;;;;0.55;0.50;;;;;;;;;;10332311;28;20312;-78
2022/03/08 14:49:20;;;;;;;0.40;0.40;;;;;;;;;;10368434;28;20231;-77
2022/03/08 14:54:22;;;;;;;1.98;0.30;;;;;;;;;;10333931;28;20212;-77
2022/03/08 14:59:23;;;;;;;0.30;0.30;;;;;;;;;;10335566;28;20216;-77
2022/03/08 15:04:24;;;;;;;0.20;0.20;;;;;;;;;;10367630;28;20215;-78
2022/03/08 15:09:25;;;;;;;0.20;0.20;;;;;;;;;;10320861;28;20616;-78
2022/03/08 15:14:27;;;;;;;0.30;0.30;;;;;;;;;;10333844;28;20662;-77
2022/03/08 15:19:28;;;;;;;0.45;0.30;;;;;;;;;;10337683;28;20254;-76
2022/03/08 15:24:29;;;;;;;1.52;0.40;;;;;;;;;;10333855;28;20200;-76
2022/03/08 15:29:30;;;;;;;0.63;0.30;;;;;;;;;;10332221;28;20280;-75
2022/03/08 15:34:31;;;;;;;0.40;0.40;;;;;;;;;;10346506;28;20695;-76
2022/03/08 15:39:32;;;;;;;1.10;0.20;;;;;;;;;;10333545;28;20216;-75
2022/03/08 15:44:33;;;;;;;0.30;0.30;;;;;;;;;;10324271;28;20207;-76
2022/03/08 15:49:34;;;;;;;0.20;0.20;;;;;;;;;;10335644;28;20204;-76
2022/03/08 15:54:36;;;;;;;0.25;0.25;;;;;;;;;;10330847;28;20204;-76
2022/03/08 15:59:37;;;;;;;0.38;0.30;;;;;;;;;;10328331;28;20287;-76
2022/03/08 16:04:38;;;;;;;1.85;0.40;;;;;;;;;;10334779;28;20215;-75
2022/03/08 16:09:39;;;;;;;1.17;0.40;;;;;;;;;;10331818;28;20287;-75
2022/03/08 16:14:40;;;;;;;1.00;0.50;;;;;;;;;;10331082;28;20208;-75
2022/03/08 16:19:42;;;;;;;0.68;0.40;;;;;;;;;;10337896;28;20223;-76
2022/03/08 16:24:43;;;;;;;0.50;0.50;;;;;;;;;;10330698;28;20762;-73
2022/03/08 16:29:44;;;;;;;0.30;0.30;;;;;;;;;;10341039;28;20215;-77
2022/03/08 16:34:45;;;;;;;0.95;0.50;;;;;;;;;;10335639;28;20355;-77
2022/03/08 16:39:46;;;;;;;0.70;0.52;;;;;;;;;;10328393;28;20232;-78
2022/03/08 16:44:47;;;;;;;1.15;1.15;;;;;;;;;;10330721;28;20217;-78
2022/03/08 16:49:48;;;;;;;0.70;0.70;;;;;;;;;;10332791;28;20244;-77
2022/03/08 16:54:49;;;;;;;0.77;0.40;;;;;;;;;;10336160;28;20357;-78
2022/03/08 16:59:50;;;;;;;1.48;0.80;;;;;;;;;;10331073;28;20204;-75
2022/03/08 17:04:54;;;;;;;1.38;0.60;;;;;;;;;;10324565;28;20208;-79
2022/03/08 17:09:55;;;;;;;2.05;0.50;;;;;;;;;;10320859;28;20204;-77
2022/03/08 17:14:56;;;;;;;0.60;0.60;;;;;;;;;;10322707;28;20219;-76
2022/03/08 17:19:57;;;;;;;0.98;0.93;;;;;;;;;;10353474;28;20284;-77
2022/03/08 17:24:59;;;;;;;6.90;5.30;;;;;;;;;;10326960;28;20196;-78
2022/03/08 17:30:00;;;;;;;9.27;7.60;;;;;;;;;;10326461;28;20204;-75
2022/03/08 17:35:01;;;;;;;4.28;3.97;;;;;;;;;;10343289;28;20226;-76
2022/03/08 17:40:03;;;;;;;3.90;3.70;;;;;;;;;;10330555;28;20366;-76
2022/03/08 17:45:04;;;;;;;6.53;4.18;;;;;;;;;;10349048;28;20216;-76
2022/03/08 17:50:05;;;;;;;5.57;3.90;;;;;;;;;;10320881;28;20618;-76
2022/03/08 17:55:08;;;;;;;5.15;4.50;;;;;;;;;;10318083;28;20207;-78
2022/03/08 18:00:09;;;;;;;9.55;5.95;;;;;;;;;;10320738;28;20212;-76
2022/03/08 18:05:13;;;;;;;12.00;7.60;;;;;;;;;;10319334;28;20216;-76
2022/03/08 18:10:14;;;;;;;24.30;12.00;;;;;;;;;;10326644;28;20212;-76
2022/03/08 18:15:15;;;;;;;36.83;15.95;;;;;;;;;;10360025;28;20212;-76
2022/03/08 18:20:16;;;;;;;26.70;13.77;;;;;;;;;;10321391;28;20212;-77
2022/03/08 18:25:17;;;;;;;27.20;13.52;;;;;;;;;;10353261;28;20231;-74
2022/03/08 18:30:18;;;;;;;18.15;10.45;;;;;;;;;;10316948;28;20299;-77
2022/03/08 18:35:19;;;;;;;18.02;10.05;;;;;;;;;;10356104;28;20204;-76
2022/03/08 18:40:21;;;;;;;9.20;6.22;;;;;;;;;;10356361;28;20307;-75
2022/03/08 18:45:22;;;;;;;12.73;7.43;;;;;;;;;;10326533;28;20584;-77
2022/03/08 18:50:24;;;;;;;9.10;6.53;;;;;;;;;;10325526;28;20240;-77
2022/03/08 18:55:25;;;;;;;8.48;5.65;;;;;;;;;;10318151;28;20216;-78
2022/03/08 19:00:26;;;;;;;5.88;4.35;;;;;;;;;;10358928;28;20215;-78
2022/03/08 19:05:27;;;;;;;6.13;4.55;;;;;;;;;;10341338;28;20263;-76
2022/03/08 19:10:29;;;;;;;5.45;4.68;;;;;;;;;;10328729;28;20250;-75
2022/03/08 19:15:30;;;;;;;5.20;4.55;;;;;;;;;;10324714;28;20872;-75
2022/03/08 19:20:31;;;;;;;4.78;4.38;;;;;;;;;;10330016;28;20209;-76
2022/03/08 19:25:32;;;;;;;5.40;4.65;;;;;;;;;;10362898;28;20209;-80
2022/03/08 19:30:33;;;;;;;5.40;4.90;;;;;;;;;;10366619;28;20220;-80
2022/03/08 19:35:34;;;;;;;4.88;4.38;;;;;;;;;;10331968;28;20201;-76
2022/03/08 19:40:36;;;;;;;5.63;4.90;;;;;;;;;;10326108;28;20224;-77
2022/03/08 19:45:39;;;;;;;7.28;5.55;;;;;;;;;;10327447;28;20662;-77
2022/03/08 19:50:40;;;;;;;10.90;5.47;;;;;;;;;;10328319;28;20285;-77
2022/03/08 19:55:43;;;;;;;6.07;5.03;;;;;;;;;;10342202;28;20692;-77
2022/03/08 20:00:44;;;;;;;6.63;4.82;;;;;;;;;;10372486;28;20231;-76
2022/03/08 20:05:46;;;;;;;5.57;4.97;;;;;;;;;;10374089;28;20255;-77
2022/03/08 20:10:47;;;;;;;5.55;5.05;;;;;;;;;;10346401;28;20258;-76
2022/03/08 20:15:48;;;;;;;5.15;4.68;;;;;;;;;;10340052;28;20201;-76
2022/03/08 20:20:49;;;;;;;5.32;4.82;;;;;;;;;;10370436;28;20208;-77
2022/03/08 20:25:51;;;;;;;6.97;4.25;;;;;;;;;;10338973;28;20192;-77
2022/03/08 20:30:52;;;;;;;4.40;3.75;;;;;;;;;;10342044;28;20216;-76
2022/03/08 20:35:55;;;;;;;3.83;3.55;;;;;;;;;;10368645;28;20246;-76
2022/03/08 20:40:56;;;;;;;5.57;4.50;;;;;;;;;;10339345;28;20225;-76
2022/03/08 20:45:57;;;;;;;4.07;3.53;;;;;;;;;;10338193;28;20704;-77
2022/03/08 20:50:59;;;;;;;5.20;3.22;;;;;;;;;;10323505;28;20278;-73
2022/03/08 20:56:01;;;;;;;4.25;3.45;;;;;;;;;;10322999;28;20693;-76
2022/03/08 21:01:02;;;;;;;3.45;3.15;;;;;;;;;;10350373;28;20228;-76
2022/03/08 21:06:03;;;;;;;3.90;3.70;;;;;;;;;;10323053;28;20577;-76
2022/03/08 21:11:05;;;;;;;3.88;3.55;;;;;;;;;;10359634;28;20291;-76
2022/03/08 21:16:06;;;;;;;5.38;4.20;;;;;;;;;;10327271;28;20243;-76
2022/03/08 21:21:07;;;;;;;6.10;4.68;;;;;;;;;;10329337;28;20290;-76
2022/03/08 21:26:08;;;;;;;8.20;5.68;;;;;;;;;;10323260;28;20204;-76
2022/03/08 21:31:09;;;;;;;7.00;5.82;;;;;;;;;;10320072;28;20247;-76
2022/03/08 21:36:11;;;;;;;6.50;5.68;;;;;;;;;;10330243;28;20747;-76
2022/03/08 21:41:12;;;;;;;7.78;5.10;;;;;;;;;;10326762;28;20228;-76
2022/03/08 21:46:13;;;;;;;8.02;4.55;;;;;;;;;;10330173;28;20248;-76
2022/03/08 21:51:14;;;;;;;7.05;5.40;;;;;;;;;;10327756;28;20202;-76
2022/03/08 21:56:15;;;;;;;5.10;4.60;;;;;;;;;;10326343;28;20212;-76
2022/03/08 22:01:16;;;;;;;6.47;5.00;;;;;;;;;;10334741;28;20213;-76
2022/03/08 22:06:17;;;;;;;6.63;5.00;;;;;;;;;;10324625;28;20208;-76
2022/03/08 22:11:18;;;;;;;8.27;5.25;;;;;;;;;;10321302;28;20399;-76
2022/03/08 22:16:19;;;;;;;7.40;5.30;;;;;;;;;;10328447;28;20235;-76
2022/03/08 22:21:21;;;;;;;6.78;5.95;;;;;;;;;;10324689;28;20615;-76
2022/03/08 22:26:22;;;;;;;12.50;6.25;;;;;;;;;;10357755;28;20197;-76
2022/03/08 22:31:23;;;;;;;8.93;6.82;;;;;;;;;;10328712;28;20696;-75
2022/03/08 22:36:24;;;;;;;8.23;6.93;;;;;;;;;;10361213;28;20284;-75
2022/03/08 22:41:25;;;;;;;11.05;6.80;;;;;;;;;;10330615;28;20236;-75
2022/03/08 22:46:27;;;;;;;9.20;7.37;;;;;;;;;;10335427;28;20274;-77
2022/03/08 22:56:47;;;;;;;9.35;6.60;;;;;;;;;;10334242;28;20509;-76
2022/03/08 23:01:49;;;;;;;7.82;7.03;;;;;;;;;;10353117;28;20227;-75
2022/03/08 23:06:50;;;;;;;8.15;6.88;;;;;;;;;;10320138;28;20204;-75
2022/03/08 23:11:51;;;;;;;10.40;6.05;;;;;;;;;;10323721;28;20259;-75
2022/03/08 23:16:52;;;;;;;9.02;6.70;;;;;;;;;;10319216;28;20204;-74
2022/03/08 23:21:53;;;;;;;8.18;6.72;;;;;;;;;;10323707;28;20652;-74
2022/03/08 23:26:54;;;;;;;6.80;5.73;;;;;;;;;;10315968;28;20211;-75
2022/03/08 23:31:55;;;;;;;9.43;7.30;;;;;;;;;;10325911;28;20223;-76
2022/03/08 23:36:56;;;;;;;8.43;6.93;;;;;;;;;;10334648;28;20894;-75
2022/03/08 23:41:57;;;;;;;7.80;6.18;;;;;;;;;;10335142;28;20227;-73
2022/03/08 23:46:58;;;;;;;7.97;6.55;;;;;;;;;;10363156;28;22051;-74
2022/03/08 23:51:59;;;;;;;7.30;6.57;;;;;;;;;;10337272;28;20258;-73
2022/03/08 23:57:00;;;;;;;11.23;6.97;;;;;;;;;;10340703;28;20390;-73
